createdAt,value
2023-01-13T00:03:44.788Z,1.28
2023-01-13T00:06:31.995Z,1.35
2023-01-13T00:09:19.184Z,1.30
2023-01-13T00:12:07.006Z,1.39
2023-01-13T00:14:54.164Z,1.33
2023-01-13T00:17:41.354Z,1.48
2023-01-13T00:20:28.827Z,1.40
2023-01-13T00:23:15.951Z,1.34
2023-01-13T00:26:10.323Z,1.54
2023-01-13T00:28:59.215Z,1.45
2023-01-13T00:31:46.403Z,1.35
2023-01-13T00:34:33.874Z,1.30
2023-01-13T00:37:21.089Z,1.33
2023-01-13T00:40:09.082Z,1.35
2023-01-13T00:43:14.888Z,1.30
2023-01-13T00:46:06.371Z,1.29
2023-01-13T00:48:54.444Z,1.18
2023-01-13T00:51:41.598Z,1.34
2023-01-13T00:54:28.764Z,1.34
2023-01-13T00:57:15.991Z,1.31
2023-01-13T01:00:06.673Z,1.31
2023-01-13T01:02:53.901Z,1.20
2023-01-13T01:05:41.140Z,1.26
2023-01-13T01:08:28.365Z,1.55
2023-01-13T01:11:18.335Z,1.39
2023-01-13T01:14:06.382Z,1.16
2023-01-13T01:16:54.620Z,1.28
2023-01-13T01:19:44.502Z,1.21
2023-01-13T01:22:31.675Z,1.14
2023-01-13T01:25:18.878Z,1.17
2023-01-13T01:28:06.119Z,1.19
2023-01-13T01:30:55.527Z,1.43
2023-01-13T01:33:43.248Z,1.31
2023-01-13T01:36:30.582Z,1.21
2023-01-13T01:39:17.753Z,1.04
2023-01-13T01:42:24.373Z,1.11
2023-01-13T01:45:24.692Z,1.16
2023-01-13T01:48:12.586Z,1.04
2023-01-13T01:51:00.160Z,1.07
2023-01-13T01:53:48.286Z,1.07
2023-01-13T01:56:37.288Z,1.27
2023-01-13T01:59:27.333Z,1.08
2023-01-13T02:02:14.653Z,1.20
2023-01-13T02:05:02.429Z,1.22
2023-01-13T02:07:52.882Z,1.20
2023-01-13T02:10:41.682Z,1.17
2023-01-13T02:13:29.042Z,1.04
2023-01-13T02:16:24.739Z,1.38
2023-01-13T02:19:28.506Z,1.41
2023-01-13T02:22:44.767Z,1.40
2023-01-13T02:25:50.647Z,1.29
2023-01-13T02:29:14.938Z,1.47
2023-01-13T02:32:20.662Z,1.34
2023-01-13T02:35:20.483Z,1.32
2023-01-13T02:38:11.237Z,1.46
2023-01-13T02:41:25.371Z,1.30
2023-01-13T02:44:17.147Z,1.21
2023-01-13T02:47:22.552Z,1.39
2023-01-13T02:50:17.578Z,1.37
2023-01-13T02:53:23.203Z,1.38
2023-01-13T02:56:11.584Z,1.36
2023-01-13T02:59:00.537Z,1.36
2023-01-13T03:01:49.381Z,1.40
2023-01-13T03:04:57.065Z,1.40
2023-01-13T03:08:12.002Z,1.39
2023-01-13T03:11:12.624Z,1.40
2023-01-13T03:14:08.961Z,1.47
2023-01-13T03:17:19.061Z,1.64
2023-01-13T03:20:13.155Z,1.48
2023-01-13T03:23:03.373Z,1.56
2023-01-13T03:25:54.563Z,1.66
2023-01-13T03:29:06.201Z,1.60
2023-01-13T03:32:03.488Z,1.55
2023-01-13T03:35:08.673Z,1.60
2023-01-13T03:38:07.431Z,1.72
2023-01-13T03:40:59.459Z,1.63
2023-01-13T03:44:14.527Z,1.86
2023-01-13T03:47:03.984Z,1.79
2023-01-13T03:49:57.400Z,1.73
2023-01-13T03:52:50.795Z,1.59
2023-01-13T03:55:46.244Z,1.57
2023-01-13T03:58:38.153Z,1.69
2023-01-13T04:01:32.127Z,1.65
2023-01-13T04:04:27.105Z,1.79
2023-01-13T04:07:23.151Z,1.62
2023-01-13T04:10:12.144Z,1.58
2023-01-13T04:13:06.480Z,1.63
2023-01-13T04:15:53.596Z,1.61
2023-01-13T04:18:40.934Z,1.69
2023-01-13T04:21:29.671Z,1.94
2023-01-13T04:24:16.701Z,1.73
2023-01-13T04:27:06.398Z,1.71
2023-01-13T04:29:53.483Z,1.60
2023-01-13T04:32:40.679Z,1.56
2023-01-13T04:35:27.751Z,1.47
2023-01-13T04:38:20.349Z,1.63
2023-01-13T04:41:07.497Z,1.78
2023-01-13T04:43:54.571Z,1.68
2023-01-13T04:46:41.694Z,1.72
2023-01-13T04:49:28.812Z,1.56
2023-01-13T04:52:15.862Z,1.81
2023-01-13T04:55:06.408Z,1.58
2023-01-13T04:57:53.830Z,1.61
2023-01-13T05:00:41.108Z,1.61
2023-01-13T05:03:28.132Z,1.47
2023-01-13T05:06:15.275Z,1.45
2023-01-13T05:09:02.413Z,1.45
2023-01-13T05:12:08.616Z,1.37
2023-01-13T05:15:14.148Z,1.43
2023-01-13T05:21:33.027Z,1.16
2023-01-13T05:24:38.494Z,1.33
2023-01-13T05:27:26.833Z,1.39
2023-01-13T05:30:14.546Z,1.38
2023-01-13T05:33:06.217Z,1.37
2023-01-13T05:35:53.285Z,1.39
2023-01-13T05:38:40.389Z,1.34
2023-01-13T05:41:45.953Z,1.56
2023-01-13T05:44:33.045Z,1.49
2023-01-13T05:47:20.109Z,1.35
2023-01-13T05:50:07.507Z,1.32
2023-01-13T05:52:54.585Z,1.45
2023-01-13T05:55:42.531Z,1.51
2023-01-13T05:58:29.619Z,1.34
2023-01-13T06:01:16.806Z,1.33
2023-01-13T06:04:04.072Z,1.19
2023-01-13T06:06:51.112Z,1.50
2023-01-13T06:09:38.382Z,1.45
2023-01-13T06:12:25.470Z,1.59
2023-01-13T06:15:12.637Z,1.53
2023-01-13T06:18:04.010Z,1.52
2023-01-13T06:20:51.101Z,1.51
2023-01-13T06:23:38.825Z,1.53
2023-01-13T06:26:30.729Z,1.71
2023-01-13T06:29:18.013Z,1.68
2023-01-13T06:32:17.786Z,1.53
2023-01-13T06:35:08.843Z,1.87
2023-01-13T06:37:58.089Z,1.82
2023-01-13T06:40:45.640Z,1.74
2023-01-13T06:43:32.782Z,1.74
2023-01-13T06:46:19.915Z,1.63
2023-01-13T06:49:07.413Z,1.75
2023-01-13T06:51:54.545Z,1.64
2023-01-13T06:54:41.643Z,1.63
2023-01-13T06:57:28.763Z,1.78
2023-01-13T07:00:16.249Z,1.54
2023-01-13T07:03:10.775Z,1.74
2023-01-13T07:05:58.897Z,1.55
2023-01-13T07:08:45.954Z,1.53
2023-01-13T07:11:33.023Z,1.70
2023-01-13T07:14:38.869Z,1.84
2023-01-13T07:17:26.003Z,1.70
2023-01-13T07:20:13.658Z,1.65
2023-01-13T07:23:00.875Z,1.82
2023-01-13T07:25:48.302Z,1.73
2023-01-13T07:28:35.481Z,1.79
2023-01-13T07:31:22.662Z,1.57
2023-01-13T07:34:09.795Z,1.78
2023-01-13T07:36:56.835Z,1.82
2023-01-13T07:39:45.342Z,1.86
2023-01-13T07:42:51.249Z,1.77
2023-01-13T07:45:38.312Z,1.85
2023-01-13T07:48:29.112Z,1.83
2023-01-13T07:51:16.221Z,1.89
2023-01-13T07:54:07.009Z,1.96
2023-01-13T07:56:56.802Z,1.86
2023-01-13T07:59:43.889Z,2.10
2023-01-13T08:02:31.127Z,2.23
2023-01-13T08:05:18.378Z,2.06
2023-01-13T08:08:06.380Z,2.00
2023-01-13T08:10:53.482Z,2.06
2023-01-13T08:13:40.511Z,2.13
2023-01-13T08:16:27.631Z,2.15
2023-01-13T08:19:14.813Z,2.23
2023-01-13T08:22:02.249Z,2.33
2023-01-13T08:24:51.592Z,2.38
2023-01-13T08:27:38.642Z,2.58
2023-01-13T08:30:26.714Z,2.65
2023-01-13T08:33:13.823Z,2.65
2023-01-13T08:36:06.529Z,2.66
2023-01-13T08:38:53.764Z,2.51
2023-01-13T08:41:56.356Z,2.66
2023-01-13T08:44:43.452Z,2.77
2023-01-13T08:47:30.669Z,2.73
2023-01-13T08:50:18.282Z,2.77
2023-01-13T08:53:05.423Z,2.77
2023-01-13T08:55:52.629Z,2.98
2023-01-13T08:58:40.782Z,2.90
2023-01-13T09:01:28.358Z,2.93
2023-01-13T09:04:24.010Z,3.00
2023-01-13T09:07:11.298Z,3.09
2023-01-13T09:09:58.453Z,3.10
2023-01-13T09:13:04.245Z,3.30
2023-01-13T09:15:52.481Z,3.31
2023-01-13T09:18:39.575Z,3.35
2023-01-13T09:21:26.892Z,3.41
2023-01-13T09:24:14.033Z,3.52
2023-01-13T09:27:01.117Z,3.69
2023-01-13T09:29:48.241Z,3.75
2023-01-13T09:32:35.499Z,3.86
2023-01-13T09:35:22.584Z,4.38
2023-01-13T09:38:09.603Z,4.39
2023-01-13T09:40:56.793Z,4.38
2023-01-13T09:43:56.311Z,4.26
2023-01-13T09:46:53.485Z,4.33
2023-01-13T09:49:43.035Z,4.48
2023-01-13T09:52:30.454Z,4.45
2023-01-13T09:55:32.760Z,4.71
2023-01-13T09:58:20.077Z,4.50
2023-01-13T10:01:59.560Z,4.56
2023-01-13T10:05:11.329Z,4.64
2023-01-13T10:08:35.676Z,4.78
2023-01-13T10:11:48.297Z,4.82
2023-01-13T10:14:43.150Z,4.94
2023-01-13T10:18:08.420Z,5.32
2023-01-13T10:21:08.561Z,5.18
2023-01-13T10:23:55.589Z,5.48
2023-01-13T10:26:56.763Z,5.42
2023-01-13T10:29:43.855Z,5.39
2023-01-13T10:32:30.902Z,5.52
2023-01-13T10:35:18.003Z,5.57
2023-01-13T10:38:05.044Z,5.60
2023-01-13T10:41:03.956Z,5.62
2023-01-13T10:44:04.427Z,5.66
2023-01-13T10:46:54.458Z,5.61
2023-01-13T10:49:41.496Z,5.60
2023-01-13T10:52:31.732Z,5.65
2023-01-13T10:55:27.965Z,5.74
2023-01-13T10:58:22.045Z,5.84
2023-01-13T11:01:21.293Z,5.91
2023-01-13T11:04:27.289Z,6.12
2023-01-13T11:07:38.568Z,6.36
2023-01-13T11:10:28.510Z,6.54
2023-01-13T11:13:57.776Z,6.39
2023-01-13T11:16:53.621Z,6.40
2023-01-13T11:19:49.006Z,6.57
2023-01-13T11:22:41.314Z,6.61
2023-01-13T11:25:41.976Z,6.68
2023-01-13T11:28:44.061Z,7.14
2023-01-13T11:31:43.832Z,7.04
2023-01-13T11:34:36.536Z,6.92
2023-01-13T11:37:40.953Z,7.12
2023-01-13T11:40:36.437Z,7.07
2023-01-13T11:43:33.954Z,7.06
2023-01-13T11:46:26.080Z,7.07
2023-01-13T11:49:22.765Z,7.34
2023-01-13T11:52:18.699Z,7.37
2023-01-13T11:55:22.386Z,7.35
2023-01-13T11:58:33.830Z,7.26
2023-01-13T12:01:50.612Z,7.66
2023-01-13T12:05:00.125Z,7.89
2023-01-13T12:07:59.189Z,8.42
2023-01-13T12:11:19.216Z,8.67
2023-01-13T12:14:21.831Z,9.21
2023-01-13T12:17:24.830Z,9.46
2023-01-13T12:20:55.425Z,9.85
2023-01-13T12:24:18.191Z,9.95
2023-01-13T12:27:09.211Z,10.21
2023-01-13T12:29:59.904Z,10.63
2023-01-13T12:32:48.304Z,10.79
2023-01-13T12:35:58.682Z,10.88
2023-01-13T12:38:53.635Z,10.91
2023-01-13T12:42:10.528Z,11.03
2023-01-13T12:45:12.909Z,11.25
2023-01-13T12:48:00.710Z,11.28
2023-01-13T12:51:00.780Z,11.03
2023-01-13T12:53:47.826Z,10.99
2023-01-13T12:56:45.455Z,10.77
2023-01-13T12:59:34.077Z,10.71
2023-01-13T13:02:30.880Z,10.43
2023-01-13T13:05:24.152Z,10.26
2023-01-13T13:08:56.306Z,9.39
2023-01-13T13:12:06.167Z,9.32
2023-01-13T13:14:53.353Z,9.24
2023-01-13T13:17:40.672Z,9.00
2023-01-13T13:21:07.065Z,8.67
2023-01-13T13:23:57.067Z,8.56
2023-01-13T13:26:46.166Z,8.63
2023-01-13T13:30:04.007Z,8.34
2023-01-13T13:33:02.171Z,8.41
2023-01-13T13:36:09.073Z,8.59
2023-01-13T13:39:34.529Z,8.37
2023-01-13T13:42:55.463Z,8.60
2023-01-13T13:46:10.947Z,8.50
2023-01-13T13:48:58.709Z,8.59
2023-01-13T13:52:08.695Z,8.41
2023-01-13T13:54:58.587Z,8.50
2023-01-13T13:57:49.068Z,8.30
2023-01-13T14:00:38.408Z,8.55
2023-01-13T14:03:29.967Z,8.65
2023-01-13T14:06:24.473Z,8.85
2023-01-13T14:09:19.214Z,8.61
2023-01-13T14:12:16.057Z,8.48
2023-01-13T14:15:03.579Z,8.71
2023-01-13T14:17:50.989Z,8.52
2023-01-13T14:20:38.344Z,8.43
2023-01-13T14:23:29.595Z,8.45
2023-01-13T14:26:17.047Z,8.37
2023-01-13T14:29:04.459Z,8.30
2023-01-13T14:31:53.879Z,8.43
2023-01-13T14:34:41.162Z,8.23
2023-01-13T14:37:28.181Z,8.04
2023-01-13T14:40:35.984Z,7.87
2023-01-13T14:43:25.956Z,8.01
2023-01-13T14:46:13.457Z,8.03
2023-01-13T14:49:04.121Z,7.93
2023-01-13T14:51:52.373Z,7.76
2023-01-13T14:54:48.449Z,7.91
2023-01-13T14:57:37.219Z,7.73
2023-01-13T15:00:25.872Z,7.79
2023-01-13T15:03:18.093Z,7.58
2023-01-13T15:06:22.338Z,7.57
2023-01-13T15:09:13.396Z,7.61
2023-01-13T15:12:15.861Z,7.85
2023-01-13T15:15:05.168Z,7.83
2023-01-13T15:17:53.769Z,7.67
2023-01-13T15:20:41.886Z,7.82
2023-01-13T15:23:29.029Z,7.65
2023-01-13T15:26:24.450Z,7.85
2023-01-13T15:29:15.421Z,7.67
2023-01-13T15:32:03.754Z,7.42
2023-01-13T15:34:54.284Z,7.44
2023-01-13T15:37:42.288Z,7.28
2023-01-13T15:40:33.162Z,7.28
2023-01-13T15:43:40.942Z,7.35
2023-01-13T15:46:40.065Z,7.38
2023-01-13T15:49:35.854Z,7.26
2023-01-13T15:52:25.362Z,7.11
2023-01-13T15:55:12.481Z,6.88
2023-01-13T15:57:59.804Z,6.76
2023-01-13T16:00:46.983Z,6.82
2023-01-13T16:03:34.073Z,6.67
2023-01-13T16:06:28.020Z,6.46
2023-01-13T16:09:17.114Z,6.33
2023-01-13T16:12:04.326Z,6.03
2023-01-13T16:14:51.425Z,6.21
2023-01-13T16:17:38.595Z,6.12
2023-01-13T16:20:27.112Z,6.15
2023-01-13T16:23:14.311Z,5.97
2023-01-13T16:26:01.305Z,6.02
2023-01-13T16:28:49.169Z,6.14
2023-01-13T16:31:36.549Z,5.81
2023-01-13T16:34:23.819Z,5.85
2023-01-13T16:37:21.609Z,5.83
2023-01-13T16:40:33.552Z,5.70
2023-01-13T16:43:21.565Z,5.49
2023-01-13T16:46:22.765Z,5.67
2023-01-13T16:49:16.818Z,5.64
2023-01-13T16:52:04.821Z,5.73
2023-01-13T16:54:52.082Z,5.73
2023-01-13T16:57:39.289Z,5.71
2023-01-13T17:00:26.621Z,5.68
2023-01-13T17:03:14.951Z,5.50
2023-01-13T17:06:04.366Z,5.68
2023-01-13T17:08:53.542Z,5.54
2023-01-13T17:11:41.095Z,5.51
2023-01-13T17:14:29.280Z,5.78
2023-01-13T17:17:27.357Z,5.65
2023-01-13T17:20:16.546Z,6.38
2023-01-13T17:23:03.753Z,6.93
2023-01-13T17:25:54.827Z,7.07
2023-01-13T17:28:46.457Z,7.24
2023-01-13T17:31:35.425Z,7.20
2023-01-13T17:34:22.791Z,7.07
2023-01-13T17:37:14.220Z,7.07
2023-01-13T17:40:01.854Z,6.99
2023-01-13T17:42:49.158Z,7.09
2023-01-13T17:45:41.341Z,7.30
2023-01-13T17:48:28.560Z,7.08
2023-01-13T17:51:17.524Z,7.20
2023-01-13T17:54:05.212Z,7.40
2023-01-13T17:56:52.325Z,7.25
2023-01-13T17:59:41.595Z,7.04
2023-01-13T18:02:30.479Z,6.93
2023-01-13T18:05:17.846Z,7.08
2023-01-13T18:08:05.790Z,6.93
2023-01-13T18:10:52.993Z,6.76
2023-01-13T18:13:50.149Z,6.77
2023-01-13T18:16:37.944Z,6.63
2023-01-13T18:19:44.050Z,6.86
2023-01-13T18:22:51.049Z,6.68
2023-01-13T18:25:58.342Z,6.60
2023-01-13T18:28:45.474Z,6.40
2023-01-13T18:31:32.764Z,6.17
2023-01-13T18:34:20.810Z,6.45
2023-01-13T18:37:11.928Z,6.38
2023-01-13T18:39:59.748Z,6.39
2023-01-13T18:42:55.087Z,6.28
2023-01-13T18:45:42.902Z,6.14
2023-01-13T18:48:31.869Z,6.11
2023-01-13T18:51:21.690Z,6.29
2023-01-13T18:54:09.582Z,6.39
2023-01-13T18:56:57.442Z,6.48
2023-01-13T18:59:44.947Z,6.35
2023-01-13T19:02:32.618Z,6.47
2023-01-13T19:05:22.374Z,6.65
2023-01-13T19:08:10.309Z,6.35
2023-01-13T19:11:04.788Z,6.50
2023-01-13T19:13:53.587Z,6.44
2023-01-13T19:16:40.995Z,6.50
2023-01-13T19:19:28.449Z,6.63
2023-01-13T19:22:18.249Z,6.45
2023-01-13T19:25:06.559Z,6.46
2023-01-13T19:27:53.885Z,6.38
2023-01-13T19:30:41.121Z,6.54
2023-01-13T19:33:33.816Z,6.51
2023-01-13T19:36:21.438Z,6.57
2023-01-13T19:39:09.577Z,6.32
2023-01-13T19:42:15.492Z,6.25
2023-01-13T19:45:21.369Z,5.98
2023-01-13T19:48:09.771Z,5.97
2023-01-13T19:50:59.057Z,6.20
2023-01-13T19:53:47.652Z,6.32
2023-01-13T19:56:35.398Z,5.95
2023-01-13T19:59:29.125Z,6.24
2023-01-13T20:02:29.045Z,6.19
2023-01-13T20:05:22.150Z,6.35
2023-01-13T20:08:11.108Z,6.32
2023-01-13T20:11:18.335Z,6.31
2023-01-13T20:14:05.820Z,5.94
2023-01-13T20:16:53.373Z,5.88
2023-01-13T20:19:43.029Z,5.81
2023-01-13T20:22:32.096Z,5.77
2023-01-13T20:25:20.485Z,5.70
2023-01-13T20:28:08.252Z,5.75
2023-01-13T20:30:56.353Z,5.67
2023-01-13T20:33:43.748Z,5.67
2023-01-13T20:36:37.529Z,5.39
2023-01-13T20:39:29.949Z,5.45
2023-01-13T20:42:30.381Z,5.16
2023-01-13T20:45:23.286Z,4.97
2023-01-13T20:48:10.740Z,4.84
2023-01-13T20:51:00.429Z,4.61
2023-01-13T20:53:50.432Z,4.65
2023-01-13T20:56:37.572Z,4.36
2023-01-13T20:59:25.289Z,4.28
2023-01-13T21:02:14.871Z,4.22
2023-01-13T21:05:04.177Z,4.14
2023-01-13T21:07:51.231Z,3.93
2023-01-13T21:10:38.520Z,3.77
2023-01-13T21:13:44.082Z,3.80
2023-01-13T21:16:31.884Z,3.69
2023-01-13T21:19:19.131Z,3.95
2023-01-13T21:22:06.356Z,3.97
2023-01-13T21:24:53.759Z,3.98
2023-01-13T21:27:41.474Z,4.00
2023-01-13T21:30:28.587Z,3.74
2023-01-13T21:33:15.726Z,3.68
2023-01-13T21:36:11.527Z,3.54
2023-01-13T21:38:59.603Z,3.59
2023-01-13T21:42:05.241Z,3.72
2023-01-13T21:45:10.990Z,3.68
2023-01-13T21:47:58.092Z,3.92
2023-01-13T21:50:45.469Z,3.88
2023-01-13T21:53:32.600Z,3.84
2023-01-13T21:56:20.002Z,3.60
2023-01-13T21:59:07.169Z,3.62
2023-01-13T22:02:23.911Z,3.50
2023-01-13T22:05:14.444Z,3.40
2023-01-13T22:08:02.335Z,3.35
2023-01-13T22:10:58.729Z,3.22
2023-01-13T22:14:04.252Z,3.31
2023-01-13T22:16:51.403Z,3.19
2023-01-13T22:19:42.299Z,3.08
2023-01-13T22:22:35.031Z,3.08
2023-01-13T22:25:22.096Z,3.10
2023-01-13T22:28:09.566Z,3.12
2023-01-13T22:30:56.665Z,2.92
2023-01-13T22:33:48.016Z,3.00
2023-01-13T22:36:35.133Z,3.12
2023-01-13T22:39:22.191Z,2.98
2023-01-13T22:42:10.343Z,2.99
2023-01-13T22:44:57.427Z,3.11
2023-01-13T22:47:44.543Z,3.14
2023-01-13T22:50:32.652Z,3.32
2023-01-13T22:53:20.255Z,3.34
2023-01-13T22:56:08.665Z,3.58
2023-01-13T22:59:00.776Z,3.60
2023-01-13T23:01:47.991Z,3.28
2023-01-13T23:04:35.332Z,3.30
2023-01-13T23:07:22.541Z,3.20
2023-01-13T23:10:10.075Z,3.02
2023-01-13T23:12:57.201Z,2.91
2023-01-13T23:15:44.405Z,2.89
2023-01-13T23:18:32.210Z,2.90
2023-01-13T23:21:27.152Z,2.87
2023-01-13T23:24:26.220Z,2.82
2023-01-13T23:27:13.325Z,3.00
2023-01-13T23:30:06.976Z,3.07
2023-01-13T23:32:54.071Z,2.73
2023-01-13T23:35:41.348Z,2.81
2023-01-13T23:38:29.472Z,2.69
2023-01-13T23:41:19.506Z,2.62
2023-01-13T23:44:07.322Z,2.64
2023-01-13T23:46:54.610Z,2.58
2023-01-13T23:49:41.811Z,2.65
2023-01-13T23:52:28.954Z,2.73
2023-01-13T23:55:16.060Z,2.66
2023-01-13T23:58:03.384Z,2.79
